sensor_id;sensor_type;location;lat;lon;timestamp;P1;durP1;ratioP1;P2;durP2;ratioP2
2728;SDS011;1372;47.956;7.830;2023-04-30T00:00:45;7.20;;;6.20;;
2728;SDS011;1372;47.956;7.830;2023-04-30T00:03:20;6.80;;;6.10;;
2728;SDS011;1372;47.956;7.830;2023-04-30T00:05:50;9.33;;;7.73;;
2728;SDS011;1372;47.956;7.830;2023-04-30T00:08:20;7.27;;;6.40;;
2728;SDS011;1372;47.956;7.830;2023-04-30T00:10:49;6.20;;;5.60;;
2728;SDS011;1372;47.956;7.830;2023-04-30T00:13:20;7.77;;;6.97;;
2728;SDS011;1372;47.956;7.830;2023-04-30T00:15:49;7.10;;;6.27;;
2728;SDS011;1372;47.956;7.830;2023-04-30T00:18:27;7.90;;;6.53;;
2728;SDS011;1372;47.956;7.830;2023-04-30T00:20:56;8.87;;;7.17;;
2728;SDS011;1372;47.956;7.830;2023-04-30T00:23:26;8.43;;;6.73;;
2728;SDS011;1372;47.956;7.830;2023-04-30T00:25:57;8.17;;;7.07;;
2728;SDS011;1372;47.956;7.830;2023-04-30T00:28:28;8.70;;;6.70;;
2728;SDS011;1372;47.956;7.830;2023-04-30T00:30:59;6.47;;;5.83;;
2728;SDS011;1372;47.956;7.830;2023-04-30T00:33:49;10.40;;;7.60;;
2728;SDS011;1372;47.956;7.830;2023-04-30T00:36:18;7.87;;;6.97;;
2728;SDS011;1372;47.956;7.830;2023-04-30T00:38:48;7.30;;;6.60;;
2728;SDS011;1372;47.956;7.830;2023-04-30T00:41:16;8.63;;;7.80;;
2728;SDS011;1372;47.956;7.830;2023-04-30T00:43:48;8.70;;;7.80;;
2728;SDS011;1372;47.956;7.830;2023-04-30T00:46:17;10.20;;;6.93;;
2728;SDS011;1372;47.956;7.830;2023-04-30T00:48:54;7.97;;;7.17;;
2728;SDS011;1372;47.956;7.830;2023-04-30T00:51:23;7.50;;;6.50;;
2728;SDS011;1372;47.956;7.830;2023-04-30T00:53:54;8.30;;;7.00;;
2728;SDS011;1372;47.956;7.830;2023-04-30T00:56:24;10.73;;;7.17;;
2728;SDS011;1372;47.956;7.830;2023-04-30T00:58:55;7.70;;;6.70;;
2728;SDS011;1372;47.956;7.830;2023-04-30T01:01:24;8.17;;;6.80;;
2728;SDS011;1372;47.956;7.830;2023-04-30T01:03:54;8.77;;;7.17;;
2728;SDS011;1372;47.956;7.830;2023-04-30T01:06:23;8.60;;;7.20;;
2728;SDS011;1372;47.956;7.830;2023-04-30T01:08:55;8.27;;;6.77;;
2728;SDS011;1372;47.956;7.830;2023-04-30T01:11:39;9.40;;;8.07;;
2728;SDS011;1372;47.956;7.830;2023-04-30T01:17:22;9.00;;;6.47;;
2728;SDS011;1372;47.956;7.830;2023-04-30T01:19:59;7.50;;;6.47;;
2728;SDS011;1372;47.956;7.830;2023-04-30T01:22:34;13.97;;;7.63;;
2728;SDS011;1372;47.956;7.830;2023-04-30T01:25:19;9.30;;;7.00;;
2728;SDS011;1372;47.956;7.830;2023-04-30T01:28:18;8.37;;;7.07;;
2728;SDS011;1372;47.956;7.830;2023-04-30T01:30:47;6.23;;;5.63;;
2728;SDS011;1372;47.956;7.830;2023-04-30T01:36:49;7.83;;;6.70;;
2728;SDS011;1372;47.956;7.830;2023-04-30T01:39:41;8.17;;;5.73;;
2728;SDS011;1372;47.956;7.830;2023-04-30T01:42:27;10.63;;;6.60;;
2728;SDS011;1372;47.956;7.830;2023-04-30T01:45:13;7.97;;;6.67;;
2728;SDS011;1372;47.956;7.830;2023-04-30T01:47:56;8.77;;;6.60;;
2728;SDS011;1372;47.956;7.830;2023-04-30T01:50:51;8.90;;;6.83;;
2728;SDS011;1372;47.956;7.830;2023-04-30T01:53:28;8.40;;;6.20;;
2728;SDS011;1372;47.956;7.830;2023-04-30T01:56:05;7.43;;;6.63;;
2728;SDS011;1372;47.956;7.830;2023-04-30T01:58:44;8.00;;;6.33;;
2728;SDS011;1372;47.956;7.830;2023-04-30T02:01:27;8.63;;;6.40;;
2728;SDS011;1372;47.956;7.830;2023-04-30T02:03:57;8.00;;;6.50;;
2728;SDS011;1372;47.956;7.830;2023-04-30T02:06:26;6.23;;;5.63;;
2728;SDS011;1372;47.956;7.830;2023-04-30T02:08:56;8.97;;;7.03;;
2728;SDS011;1372;47.956;7.830;2023-04-30T02:11:29;7.60;;;5.97;;
2728;SDS011;1372;47.956;7.830;2023-04-30T02:14:00;6.80;;;5.90;;
2728;SDS011;1372;47.956;7.830;2023-04-30T02:16:30;7.80;;;6.77;;
2728;SDS011;1372;47.956;7.830;2023-04-30T02:19:01;7.30;;;6.50;;
2728;SDS011;1372;47.956;7.830;2023-04-30T02:21:30;9.00;;;6.90;;
2728;SDS011;1372;47.956;7.830;2023-04-30T02:23:59;6.27;;;5.67;;
2728;SDS011;1372;47.956;7.830;2023-04-30T02:26:28;7.53;;;5.90;;
2728;SDS011;1372;47.956;7.830;2023-04-30T02:28:59;6.70;;;5.63;;
2728;SDS011;1372;47.956;7.830;2023-04-30T02:31:27;6.30;;;5.57;;
2728;SDS011;1372;47.956;7.830;2023-04-30T02:33:58;6.23;;;5.53;;
2728;SDS011;1372;47.956;7.830;2023-04-30T02:36:27;6.33;;;5.30;;
2728;SDS011;1372;47.956;7.830;2023-04-30T02:41:53;6.07;;;5.47;;
2728;SDS011;1372;47.956;7.830;2023-04-30T02:44:21;10.57;;;6.37;;
2728;SDS011;1372;47.956;7.830;2023-04-30T02:46:50;6.50;;;5.90;;
2728;SDS011;1372;47.956;7.830;2023-04-30T02:49:21;9.60;;;7.20;;
2728;SDS011;1372;47.956;7.830;2023-04-30T02:51:50;7.37;;;6.30;;
2728;SDS011;1372;47.956;7.830;2023-04-30T02:54:18;8.90;;;7.10;;
2728;SDS011;1372;47.956;7.830;2023-04-30T02:56:47;6.63;;;5.93;;
2728;SDS011;1372;47.956;7.830;2023-04-30T02:59:16;6.73;;;5.57;;
2728;SDS011;1372;47.956;7.830;2023-04-30T03:01:45;7.70;;;6.10;;
2728;SDS011;1372;47.956;7.830;2023-04-30T03:08:05;7.30;;;6.60;;
2728;SDS011;1372;47.956;7.830;2023-04-30T03:10:34;7.70;;;6.47;;
2728;SDS011;1372;47.956;7.830;2023-04-30T03:13:02;7.73;;;6.53;;
2728;SDS011;1372;47.956;7.830;2023-04-30T03:15:31;7.40;;;6.60;;
2728;SDS011;1372;47.956;7.830;2023-04-30T03:18:02;8.67;;;7.50;;
2728;SDS011;1372;47.956;7.830;2023-04-30T03:20:31;8.17;;;6.70;;
2728;SDS011;1372;47.956;7.830;2023-04-30T03:23:00;9.10;;;7.50;;
2728;SDS011;1372;47.956;7.830;2023-04-30T03:25:31;8.77;;;7.13;;
2728;SDS011;1372;47.956;7.830;2023-04-30T03:27:59;8.10;;;6.50;;
2728;SDS011;1372;47.956;7.830;2023-04-30T03:30:28;8.17;;;6.60;;
2728;SDS011;1372;47.956;7.830;2023-04-30T03:32:59;7.50;;;5.77;;
2728;SDS011;1372;47.956;7.830;2023-04-30T03:35:28;8.20;;;7.40;;
2728;SDS011;1372;47.956;7.830;2023-04-30T03:38:14;6.73;;;5.30;;
2728;SDS011;1372;47.956;7.830;2023-04-30T03:40:44;6.67;;;5.97;;
2728;SDS011;1372;47.956;7.830;2023-04-30T03:43:13;6.40;;;5.63;;
2728;SDS011;1372;47.956;7.830;2023-04-30T03:45:42;6.50;;;5.70;;
2728;SDS011;1372;47.956;7.830;2023-04-30T03:48:28;7.07;;;6.33;;
2728;SDS011;1372;47.956;7.830;2023-04-30T03:50:57;8.37;;;6.77;;
2728;SDS011;1372;47.956;7.830;2023-04-30T03:53:26;9.00;;;6.47;;
2728;SDS011;1372;47.956;7.830;2023-04-30T03:55:56;6.33;;;5.73;;
2728;SDS011;1372;47.956;7.830;2023-04-30T03:58:25;7.03;;;6.33;;
2728;SDS011;1372;47.956;7.830;2023-04-30T04:00:54;6.70;;;5.43;;
2728;SDS011;1372;47.956;7.830;2023-04-30T04:03:23;7.20;;;6.20;;
2728;SDS011;1372;47.956;7.830;2023-04-30T04:05:52;6.50;;;5.30;;
2728;SDS011;1372;47.956;7.830;2023-04-30T04:08:21;6.60;;;5.53;;
2728;SDS011;1372;47.956;7.830;2023-04-30T04:10:50;7.53;;;5.60;;
2728;SDS011;1372;47.956;7.830;2023-04-30T04:13:20;6.70;;;5.40;;
2728;SDS011;1372;47.956;7.830;2023-04-30T04:15:49;5.90;;;5.40;;
2728;SDS011;1372;47.956;7.830;2023-04-30T04:21:14;5.93;;;5.40;;
2728;SDS011;1372;47.956;7.830;2023-04-30T04:23:43;6.47;;;5.47;;
2728;SDS011;1372;47.956;7.830;2023-04-30T04:26:12;5.57;;;4.87;;
2728;SDS011;1372;47.956;7.830;2023-04-30T04:28:43;7.30;;;5.50;;
2728;SDS011;1372;47.956;7.830;2023-04-30T04:31:16;6.60;;;5.87;;
2728;SDS011;1372;47.956;7.830;2023-04-30T04:33:46;6.80;;;5.50;;
2728;SDS011;1372;47.956;7.830;2023-04-30T04:36:15;6.20;;;5.50;;
2728;SDS011;1372;47.956;7.830;2023-04-30T04:38:43;7.10;;;6.40;;
2728;SDS011;1372;47.956;7.830;2023-04-30T04:41:12;8.30;;;6.50;;
2728;SDS011;1372;47.956;7.830;2023-04-30T04:43:43;6.93;;;6.20;;
2728;SDS011;1372;47.956;7.830;2023-04-30T04:46:12;8.43;;;6.00;;
2728;SDS011;1372;47.956;7.830;2023-04-30T04:51:38;21.07;;;16.67;;
2728;SDS011;1372;47.956;7.830;2023-04-30T04:54:06;50.43;;;35.43;;
2728;SDS011;1372;47.956;7.830;2023-04-30T04:56:36;17.30;;;13.90;;
2728;SDS011;1372;47.956;7.830;2023-04-30T04:59:06;10.73;;;8.40;;
2728;SDS011;1372;47.956;7.830;2023-04-30T05:01:35;8.40;;;7.20;;
2728;SDS011;1372;47.956;7.830;2023-04-30T05:04:03;8.20;;;7.40;;
2728;SDS011;1372;47.956;7.830;2023-04-30T05:06:36;11.30;;;9.10;;
2728;SDS011;1372;47.956;7.830;2023-04-30T05:09:07;9.80;;;8.30;;
2728;SDS011;1372;47.956;7.830;2023-04-30T05:11:36;8.93;;;8.03;;
2728;SDS011;1372;47.956;7.830;2023-04-30T05:14:08;13.23;;;8.80;;
2728;SDS011;1372;47.956;7.830;2023-04-30T05:16:37;11.07;;;9.27;;
2728;SDS011;1372;47.956;7.830;2023-04-30T05:19:06;11.27;;;9.07;;
2728;SDS011;1372;47.956;7.830;2023-04-30T05:21:35;19.73;;;14.57;;
2728;SDS011;1372;47.956;7.830;2023-04-30T05:24:06;13.10;;;9.73;;
2728;SDS011;1372;47.956;7.830;2023-04-30T05:26:35;11.27;;;9.27;;
2728;SDS011;1372;47.956;7.830;2023-04-30T05:29:03;10.20;;;9.00;;
2728;SDS011;1372;47.956;7.830;2023-04-30T05:31:33;12.20;;;9.83;;
2728;SDS011;1372;47.956;7.830;2023-04-30T05:34:02;11.27;;;8.93;;
2728;SDS011;1372;47.956;7.830;2023-04-30T05:36:31;10.93;;;7.83;;
2728;SDS011;1372;47.956;7.830;2023-04-30T05:39:02;9.93;;;8.93;;
2728;SDS011;1372;47.956;7.830;2023-04-30T05:41:31;7.83;;;7.03;;
2728;SDS011;1372;47.956;7.830;2023-04-30T05:44:03;10.87;;;9.10;;
2728;SDS011;1372;47.956;7.830;2023-04-30T05:46:33;11.70;;;10.17;;
2728;SDS011;1372;47.956;7.830;2023-04-30T05:49:02;10.80;;;8.97;;
2728;SDS011;1372;47.956;7.830;2023-04-30T05:51:30;11.77;;;9.20;;
2728;SDS011;1372;47.956;7.830;2023-04-30T05:54:00;10.53;;;9.20;;
2728;SDS011;1372;47.956;7.830;2023-04-30T05:56:29;10.67;;;8.50;;
2728;SDS011;1372;47.956;7.830;2023-04-30T05:58:57;8.83;;;7.77;;
2728;SDS011;1372;47.956;7.830;2023-04-30T06:01:28;8.33;;;6.60;;
2728;SDS011;1372;47.956;7.830;2023-04-30T06:03:58;8.13;;;6.83;;
2728;SDS011;1372;47.956;7.830;2023-04-30T06:06:27;7.83;;;6.43;;
2728;SDS011;1372;47.956;7.830;2023-04-30T06:08:57;8.47;;;6.00;;
2728;SDS011;1372;47.956;7.830;2023-04-30T06:11:28;4.10;;;3.80;;
2728;SDS011;1372;47.956;7.830;2023-04-30T06:13:59;3.67;;;3.37;;
2728;SDS011;1372;47.956;7.830;2023-04-30T06:16:29;3.27;;;2.97;;
2728;SDS011;1372;47.956;7.830;2023-04-30T06:18:59;3.30;;;3.00;;
2728;SDS011;1372;47.956;7.830;2023-04-30T06:21:28;3.50;;;2.80;;
2728;SDS011;1372;47.956;7.830;2023-04-30T06:23:57;3.13;;;2.40;;
2728;SDS011;1372;47.956;7.830;2023-04-30T06:26:26;3.40;;;3.07;;
2728;SDS011;1372;47.956;7.830;2023-04-30T06:28:58;3.40;;;3.10;;
2728;SDS011;1372;47.956;7.830;2023-04-30T06:31:27;2.90;;;2.60;;
2728;SDS011;1372;47.956;7.830;2023-04-30T06:33:56;3.00;;;2.33;;
2728;SDS011;1372;47.956;7.830;2023-04-30T06:36:26;2.23;;;2.03;;
2728;SDS011;1372;47.956;7.830;2023-04-30T06:38:55;2.83;;;2.53;;
2728;SDS011;1372;47.956;7.830;2023-04-30T06:41:24;3.37;;;2.20;;
2728;SDS011;1372;47.956;7.830;2023-04-30T06:43:52;3.87;;;2.70;;
2728;SDS011;1372;47.956;7.830;2023-04-30T06:46:21;2.60;;;2.30;;
2728;SDS011;1372;47.956;7.830;2023-04-30T06:48:50;2.53;;;2.33;;
2728;SDS011;1372;47.956;7.830;2023-04-30T06:51:19;2.07;;;1.97;;
2728;SDS011;1372;47.956;7.830;2023-04-30T06:53:49;2.60;;;2.40;;
2728;SDS011;1372;47.956;7.830;2023-04-30T06:56:20;3.00;;;2.70;;
2728;SDS011;1372;47.956;7.830;2023-04-30T06:58:49;3.63;;;2.20;;
2728;SDS011;1372;47.956;7.830;2023-04-30T07:01:17;2.40;;;2.20;;
2728;SDS011;1372;47.956;7.830;2023-04-30T07:03:46;3.00;;;2.70;;
2728;SDS011;1372;47.956;7.830;2023-04-30T07:06:17;2.80;;;2.60;;
2728;SDS011;1372;47.956;7.830;2023-04-30T07:08:46;2.20;;;2.00;;
2728;SDS011;1372;47.956;7.830;2023-04-30T07:11:18;1.97;;;1.87;;
2728;SDS011;1372;47.956;7.830;2023-04-30T07:13:47;5.10;;;2.47;;
2728;SDS011;1372;47.956;7.830;2023-04-30T07:16:16;2.80;;;2.47;;
2728;SDS011;1372;47.956;7.830;2023-04-30T07:18:45;2.87;;;2.30;;
2728;SDS011;1372;47.956;7.830;2023-04-30T07:21:15;2.60;;;2.40;;
2728;SDS011;1372;47.956;7.830;2023-04-30T07:23:44;2.70;;;2.43;;
2728;SDS011;1372;47.956;7.830;2023-04-30T07:26:14;2.37;;;2.17;;
2728;SDS011;1372;47.956;7.830;2023-04-30T07:28:44;2.47;;;2.27;;
2728;SDS011;1372;47.956;7.830;2023-04-30T07:31:14;2.77;;;2.57;;
2728;SDS011;1372;47.956;7.830;2023-04-30T07:33:45;2.87;;;2.23;;
2728;SDS011;1372;47.956;7.830;2023-04-30T07:36:14;5.93;;;2.53;;
2728;SDS011;1372;47.956;7.830;2023-04-30T07:38:43;2.77;;;2.57;;
2728;SDS011;1372;47.956;7.830;2023-04-30T07:41:12;2.37;;;2.17;;
2728;SDS011;1372;47.956;7.830;2023-04-30T07:43:41;2.47;;;2.20;;
2728;SDS011;1372;47.956;7.830;2023-04-30T07:46:11;2.77;;;2.50;;
2728;SDS011;1372;47.956;7.830;2023-04-30T07:48:40;2.60;;;2.40;;
2728;SDS011;1372;47.956;7.830;2023-04-30T07:51:09;2.77;;;2.40;;
2728;SDS011;1372;47.956;7.830;2023-04-30T07:53:40;2.77;;;2.57;;
2728;SDS011;1372;47.956;7.830;2023-04-30T07:56:09;2.50;;;2.30;;
2728;SDS011;1372;47.956;7.830;2023-04-30T07:58:38;2.60;;;2.40;;
2728;SDS011;1372;47.956;7.830;2023-04-30T08:01:07;1.90;;;1.80;;
2728;SDS011;1372;47.956;7.830;2023-04-30T08:03:40;2.63;;;2.30;;
2728;SDS011;1372;47.956;7.830;2023-04-30T08:06:11;2.47;;;2.27;;
2728;SDS011;1372;47.956;7.830;2023-04-30T08:08:40;2.40;;;2.20;;
2728;SDS011;1372;47.956;7.830;2023-04-30T08:11:09;2.20;;;2.00;;
2728;SDS011;1372;47.956;7.830;2023-04-30T08:13:39;2.93;;;2.73;;
2728;SDS011;1372;47.956;7.830;2023-04-30T08:16:08;2.10;;;2.00;;
2728;SDS011;1372;47.956;7.830;2023-04-30T08:18:39;2.70;;;2.50;;
2728;SDS011;1372;47.956;7.830;2023-04-30T08:21:13;2.43;;;2.23;;
2728;SDS011;1372;47.956;7.830;2023-04-30T08:23:47;2.90;;;2.60;;
2728;SDS011;1372;47.956;7.830;2023-04-30T08:26:16;2.40;;;2.10;;
2728;SDS011;1372;47.956;7.830;2023-04-30T08:31:39;2.37;;;2.17;;
2728;SDS011;1372;47.956;7.830;2023-04-30T08:34:10;2.63;;;2.43;;
2728;SDS011;1372;47.956;7.830;2023-04-30T08:36:39;3.30;;;2.83;;
2728;SDS011;1372;47.956;7.830;2023-04-30T08:39:08;2.23;;;2.03;;
2728;SDS011;1372;47.956;7.830;2023-04-30T08:41:38;2.23;;;2.03;;
2728;SDS011;1372;47.956;7.830;2023-04-30T08:44:14;2.77;;;2.50;;
2728;SDS011;1372;47.956;7.830;2023-04-30T08:46:43;2.10;;;2.00;;
2728;SDS011;1372;47.956;7.830;2023-04-30T08:49:13;2.10;;;2.00;;
2728;SDS011;1372;47.956;7.830;2023-04-30T08:51:45;2.33;;;2.13;;
2728;SDS011;1372;47.956;7.830;2023-04-30T08:54:14;3.73;;;2.40;;
2728;SDS011;1372;47.956;7.830;2023-04-30T08:56:43;2.00;;;1.87;;
2728;SDS011;1372;47.956;7.830;2023-04-30T08:59:13;2.70;;;2.50;;
2728;SDS011;1372;47.956;7.830;2023-04-30T09:01:42;2.10;;;2.00;;
2728;SDS011;1372;47.956;7.830;2023-04-30T09:04:11;2.73;;;2.53;;
2728;SDS011;1372;47.956;7.830;2023-04-30T09:06:42;2.30;;;2.10;;
2728;SDS011;1372;47.956;7.830;2023-04-30T09:09:12;2.40;;;2.20;;
2728;SDS011;1372;47.956;7.830;2023-04-30T09:11:42;2.60;;;2.40;;
2728;SDS011;1372;47.956;7.830;2023-04-30T09:14:10;2.70;;;2.50;;
2728;SDS011;1372;47.956;7.830;2023-04-30T09:16:43;2.40;;;2.20;;
2728;SDS011;1372;47.956;7.830;2023-04-30T09:19:25;2.67;;;2.47;;
2728;SDS011;1372;47.956;7.830;2023-04-30T09:21:56;2.83;;;2.60;;
2728;SDS011;1372;47.956;7.830;2023-04-30T09:24:28;4.00;;;2.40;;
2728;SDS011;1372;47.956;7.830;2023-04-30T09:27:17;2.23;;;2.07;;
2728;SDS011;1372;47.956;7.830;2023-04-30T09:29:50;2.27;;;2.07;;
2728;SDS011;1372;47.956;7.830;2023-04-30T09:32:19;2.50;;;2.30;;
2728;SDS011;1372;47.956;7.830;2023-04-30T09:34:50;3.63;;;1.97;;
2728;SDS011;1372;47.956;7.830;2023-04-30T09:37:19;2.57;;;2.20;;
2728;SDS011;1372;47.956;7.830;2023-04-30T09:39:48;2.30;;;2.10;;
2728;SDS011;1372;47.956;7.830;2023-04-30T09:42:19;2.50;;;2.30;;
2728;SDS011;1372;47.956;7.830;2023-04-30T09:44:48;2.63;;;2.43;;
2728;SDS011;1372;47.956;7.830;2023-04-30T09:47:17;2.27;;;2.07;;
2728;SDS011;1372;47.956;7.830;2023-04-30T09:49:48;2.77;;;2.10;;
2728;SDS011;1372;47.956;7.830;2023-04-30T09:52:19;2.43;;;2.23;;
2728;SDS011;1372;47.956;7.830;2023-04-30T09:54:49;2.20;;;2.00;;
2728;SDS011;1372;47.956;7.830;2023-04-30T09:57:18;2.37;;;1.93;;
2728;SDS011;1372;47.956;7.830;2023-04-30T09:59:51;2.20;;;2.00;;
2728;SDS011;1372;47.956;7.830;2023-04-30T10:02:21;1.60;;;1.50;;
2728;SDS011;1372;47.956;7.830;2023-04-30T10:04:54;2.40;;;2.20;;
2728;SDS011;1372;47.956;7.830;2023-04-30T10:07:26;2.17;;;2.00;;
2728;SDS011;1372;47.956;7.830;2023-04-30T10:10:02;1.70;;;1.60;;
2728;SDS011;1372;47.956;7.830;2023-04-30T10:12:38;2.30;;;2.10;;
2728;SDS011;1372;47.956;7.830;2023-04-30T10:15:12;2.27;;;1.83;;
2728;SDS011;1372;47.956;7.830;2023-04-30T10:17:45;2.93;;;2.43;;
2728;SDS011;1372;47.956;7.830;2023-04-30T10:20:20;2.57;;;2.37;;
2728;SDS011;1372;47.956;7.830;2023-04-30T10:22:51;1.90;;;1.80;;
2728;SDS011;1372;47.956;7.830;2023-04-30T10:25:21;2.03;;;1.93;;
2728;SDS011;1372;47.956;7.830;2023-04-30T10:27:53;2.00;;;1.90;;
2728;SDS011;1372;47.956;7.830;2023-04-30T10:30:24;2.27;;;2.10;;
2728;SDS011;1372;47.956;7.830;2023-04-30T10:32:55;2.10;;;2.00;;
2728;SDS011;1372;47.956;7.830;2023-04-30T10:35:48;1.70;;;1.60;;
2728;SDS011;1372;47.956;7.830;2023-04-30T10:38:25;2.37;;;2.10;;
2728;SDS011;1372;47.956;7.830;2023-04-30T10:40:56;2.30;;;2.10;;
2728;SDS011;1372;47.956;7.830;2023-04-30T10:43:28;2.13;;;1.93;;
2728;SDS011;1372;47.956;7.830;2023-04-30T10:45:58;1.93;;;1.80;;
2728;SDS011;1372;47.956;7.830;2023-04-30T10:48:32;2.43;;;2.10;;
2728;SDS011;1372;47.956;7.830;2023-04-30T10:51:05;2.20;;;2.10;;
2728;SDS011;1372;47.956;7.830;2023-04-30T10:53:36;2.40;;;2.20;;
2728;SDS011;1372;47.956;7.830;2023-04-30T10:56:08;1.80;;;1.70;;
2728;SDS011;1372;47.956;7.830;2023-04-30T10:58:38;2.00;;;1.90;;
2728;SDS011;1372;47.956;7.830;2023-04-30T11:01:12;1.87;;;1.77;;
2728;SDS011;1372;47.956;7.830;2023-04-30T11:09:34;1.97;;;1.77;;
2728;SDS011;1372;47.956;7.830;2023-04-30T11:12:10;1.97;;;1.80;;
2728;SDS011;1372;47.956;7.830;2023-04-30T11:14:43;2.00;;;1.80;;
2728;SDS011;1372;47.956;7.830;2023-04-30T11:17:20;1.97;;;1.60;;
2728;SDS011;1372;47.956;7.830;2023-04-30T11:19:51;2.33;;;2.17;;
2728;SDS011;1372;47.956;7.830;2023-04-30T11:22:23;2.13;;;1.93;;
2728;SDS011;1372;47.956;7.830;2023-04-30T11:25:00;2.20;;;2.00;;
2728;SDS011;1372;47.956;7.830;2023-04-30T11:27:33;2.30;;;2.10;;
2728;SDS011;1372;47.956;7.830;2023-04-30T11:30:08;1.80;;;1.70;;
2728;SDS011;1372;47.956;7.830;2023-04-30T11:32:40;1.87;;;1.77;;
2728;SDS011;1372;47.956;7.830;2023-04-30T11:35:19;2.07;;;1.97;;
2728;SDS011;1372;47.956;7.830;2023-04-30T11:37:49;1.83;;;1.73;;
2728;SDS011;1372;47.956;7.830;2023-04-30T11:40:22;2.00;;;1.90;;
2728;SDS011;1372;47.956;7.830;2023-04-30T11:42:54;1.90;;;1.80;;
2728;SDS011;1372;47.956;7.830;2023-04-30T11:45:23;1.83;;;1.73;;
2728;SDS011;1372;47.956;7.830;2023-04-30T11:48:19;1.60;;;1.50;;
2728;SDS011;1372;47.956;7.830;2023-04-30T11:50:50;2.40;;;2.20;;
2728;SDS011;1372;47.956;7.830;2023-04-30T11:53:26;2.30;;;2.10;;
2728;SDS011;1372;47.956;7.830;2023-04-30T11:55:56;2.07;;;1.97;;
2728;SDS011;1372;47.956;7.830;2023-04-30T11:58:34;2.20;;;2.10;;
2728;SDS011;1372;47.956;7.830;2023-04-30T12:01:05;2.60;;;2.50;;
2728;SDS011;1372;47.956;7.830;2023-04-30T12:03:41;2.30;;;2.10;;
2728;SDS011;1372;47.956;7.830;2023-04-30T12:06:20;2.40;;;2.20;;
2728;SDS011;1372;47.956;7.830;2023-04-30T12:08:52;2.40;;;2.20;;
2728;SDS011;1372;47.956;7.830;2023-04-30T12:11:23;2.53;;;2.33;;
2728;SDS011;1372;47.956;7.830;2023-04-30T12:13:56;2.70;;;2.50;;
2728;SDS011;1372;47.956;7.830;2023-04-30T12:16:37;2.00;;;1.90;;
2728;SDS011;1372;47.956;7.830;2023-04-30T12:19:10;2.50;;;2.30;;
2728;SDS011;1372;47.956;7.830;2023-04-30T12:21:42;1.90;;;1.80;;
2728;SDS011;1372;47.956;7.830;2023-04-30T12:24:15;2.43;;;2.23;;
2728;SDS011;1372;47.956;7.830;2023-04-30T12:26:45;3.00;;;2.80;;
2728;SDS011;1372;47.956;7.830;2023-04-30T12:29:17;2.17;;;1.97;;
2728;SDS011;1372;47.956;7.830;2023-04-30T12:31:47;2.37;;;2.17;;
2728;SDS011;1372;47.956;7.830;2023-04-30T12:34:17;2.30;;;2.20;;
2728;SDS011;1372;47.956;7.830;2023-04-30T12:36:46;2.10;;;2.00;;
2728;SDS011;1372;47.956;7.830;2023-04-30T12:39:19;2.40;;;2.20;;
2728;SDS011;1372;47.956;7.830;2023-04-30T12:41:48;2.70;;;2.50;;
2728;SDS011;1372;47.956;7.830;2023-04-30T12:44:19;2.60;;;2.40;;
2728;SDS011;1372;47.956;7.830;2023-04-30T12:46:51;2.83;;;2.40;;
2728;SDS011;1372;47.956;7.830;2023-04-30T12:49:23;2.80;;;2.60;;
2728;SDS011;1372;47.956;7.830;2023-04-30T12:51:57;2.63;;;2.43;;
2728;SDS011;1372;47.956;7.830;2023-04-30T12:54:32;2.60;;;2.40;;
2728;SDS011;1372;47.956;7.830;2023-04-30T12:57:03;2.20;;;2.10;;
2728;SDS011;1372;47.956;7.830;2023-04-30T12:59:35;2.63;;;2.43;;
2728;SDS011;1372;47.956;7.830;2023-04-30T13:02:06;2.90;;;2.40;;
2728;SDS011;1372;47.956;7.830;2023-04-30T13:04:36;2.70;;;2.50;;
2728;SDS011;1372;47.956;7.830;2023-04-30T13:07:06;2.70;;;2.50;;
2728;SDS011;1372;47.956;7.830;2023-04-30T13:09:37;2.73;;;2.33;;
2728;SDS011;1372;47.956;7.830;2023-04-30T13:12:06;2.60;;;2.40;;
2728;SDS011;1372;47.956;7.830;2023-04-30T13:14:35;2.83;;;2.63;;
2728;SDS011;1372;47.956;7.830;2023-04-30T13:17:04;2.77;;;2.57;;
2728;SDS011;1372;47.956;7.830;2023-04-30T13:19:38;2.77;;;2.57;;
2728;SDS011;1372;47.956;7.830;2023-04-30T13:22:07;4.00;;;2.90;;
2728;SDS011;1372;47.956;7.830;2023-04-30T13:24:38;2.50;;;2.30;;
2728;SDS011;1372;47.956;7.830;2023-04-30T13:27:07;3.40;;;2.73;;
2728;SDS011;1372;47.956;7.830;2023-04-30T13:29:36;2.90;;;2.63;;
2728;SDS011;1372;47.956;7.830;2023-04-30T13:32:05;2.50;;;2.30;;
2728;SDS011;1372;47.956;7.830;2023-04-30T13:34:35;3.30;;;3.00;;
2728;SDS011;1372;47.956;7.830;2023-04-30T13:37:04;3.00;;;2.70;;
2728;SDS011;1372;47.956;7.830;2023-04-30T13:39:34;3.23;;;2.70;;
2728;SDS011;1372;47.956;7.830;2023-04-30T13:42:04;2.70;;;2.50;;
2728;SDS011;1372;47.956;7.830;2023-04-30T13:44:33;2.40;;;2.23;;
2728;SDS011;1372;47.956;7.830;2023-04-30T13:47:02;2.67;;;2.47;;
2728;SDS011;1372;47.956;7.830;2023-04-30T13:49:33;2.80;;;2.60;;
2728;SDS011;1372;47.956;7.830;2023-04-30T13:52:03;2.93;;;2.70;;
2728;SDS011;1372;47.956;7.830;2023-04-30T13:54:32;2.80;;;2.60;;
2728;SDS011;1372;47.956;7.830;2023-04-30T13:57:00;3.53;;;3.30;;
2728;SDS011;1372;47.956;7.830;2023-04-30T13:59:31;2.63;;;2.43;;
2728;SDS011;1372;47.956;7.830;2023-04-30T14:02:01;2.73;;;2.53;;
2728;SDS011;1372;47.956;7.830;2023-04-30T14:04:30;2.80;;;2.60;;
2728;SDS011;1372;47.956;7.830;2023-04-30T14:06:59;4.17;;;2.60;;
2728;SDS011;1372;47.956;7.830;2023-04-30T14:09:28;2.60;;;2.40;;
2728;SDS011;1372;47.956;7.830;2023-04-30T14:11:57;2.90;;;2.70;;
2728;SDS011;1372;47.956;7.830;2023-04-30T14:14:27;2.53;;;2.33;;
2728;SDS011;1372;47.956;7.830;2023-04-30T14:16:58;3.00;;;2.80;;
2728;SDS011;1372;47.956;7.830;2023-04-30T14:19:27;2.77;;;2.40;;
2728;SDS011;1372;47.956;7.830;2023-04-30T14:21:58;3.17;;;2.97;;
2728;SDS011;1372;47.956;7.830;2023-04-30T14:24:27;2.90;;;2.70;;
2728;SDS011;1372;47.956;7.830;2023-04-30T14:26:57;3.10;;;2.90;;
2728;SDS011;1372;47.956;7.830;2023-04-30T14:29:27;3.47;;;2.67;;
2728;SDS011;1372;47.956;7.830;2023-04-30T14:31:57;3.07;;;2.87;;
2728;SDS011;1372;47.956;7.830;2023-04-30T14:34:27;2.63;;;2.43;;
2728;SDS011;1372;47.956;7.830;2023-04-30T14:36:56;2.60;;;2.40;;
2728;SDS011;1372;47.956;7.830;2023-04-30T14:39:27;3.03;;;2.83;;
2728;SDS011;1372;47.956;7.830;2023-04-30T14:41:56;2.70;;;2.40;;
2728;SDS011;1372;47.956;7.830;2023-04-30T14:44:25;2.70;;;2.50;;
2728;SDS011;1372;47.956;7.830;2023-04-30T14:46:55;2.33;;;2.20;;
2728;SDS011;1372;47.956;7.830;2023-04-30T14:49:25;2.60;;;2.40;;
2728;SDS011;1372;47.956;7.830;2023-04-30T14:51:57;2.80;;;2.60;;
2728;SDS011;1372;47.956;7.830;2023-04-30T14:54:26;2.60;;;2.43;;
2728;SDS011;1372;47.956;7.830;2023-04-30T14:56:56;2.60;;;2.50;;
2728;SDS011;1372;47.956;7.830;2023-04-30T14:59:25;2.57;;;2.37;;
2728;SDS011;1372;47.956;7.830;2023-04-30T15:02:09;2.30;;;2.20;;
2728;SDS011;1372;47.956;7.830;2023-04-30T15:04:46;2.60;;;2.40;;
2728;SDS011;1372;47.956;7.830;2023-04-30T15:07:15;2.90;;;2.70;;
2728;SDS011;1372;47.956;7.830;2023-04-30T15:09:44;2.50;;;2.30;;
2728;SDS011;1372;47.956;7.830;2023-04-30T15:12:20;2.50;;;2.40;;
2728;SDS011;1372;47.956;7.830;2023-04-30T15:14:54;2.40;;;2.30;;
2728;SDS011;1372;47.956;7.830;2023-04-30T15:17:35;2.57;;;2.40;;
2728;SDS011;1372;47.956;7.830;2023-04-30T15:20:07;2.93;;;2.60;;
2728;SDS011;1372;47.956;7.830;2023-04-30T15:22:42;2.33;;;2.17;;
2728;SDS011;1372;47.956;7.830;2023-04-30T15:25:11;2.40;;;2.30;;
2728;SDS011;1372;47.956;7.830;2023-04-30T15:27:40;2.57;;;2.37;;
2728;SDS011;1372;47.956;7.830;2023-04-30T15:30:09;2.30;;;2.20;;
2728;SDS011;1372;47.956;7.830;2023-04-30T15:32:38;2.47;;;2.27;;
2728;SDS011;1372;47.956;7.830;2023-04-30T15:38:52;3.10;;;2.63;;
2728;SDS011;1372;47.956;7.830;2023-04-30T15:41:24;2.53;;;2.33;;
2728;SDS011;1372;47.956;7.830;2023-04-30T15:43:53;2.57;;;2.37;;
2728;SDS011;1372;47.956;7.830;2023-04-30T15:46:22;2.37;;;2.27;;
2728;SDS011;1372;47.956;7.830;2023-04-30T15:48:51;3.40;;;2.80;;
2728;SDS011;1372;47.956;7.830;2023-04-30T15:51:20;2.60;;;2.40;;
2728;SDS011;1372;47.956;7.830;2023-04-30T15:53:49;2.63;;;2.43;;
2728;SDS011;1372;47.956;7.830;2023-04-30T15:56:19;3.07;;;2.87;;
2728;SDS011;1372;47.956;7.830;2023-04-30T15:58:51;2.80;;;2.60;;
2728;SDS011;1372;47.956;7.830;2023-04-30T16:01:20;2.90;;;2.70;;
2728;SDS011;1372;47.956;7.830;2023-04-30T16:03:53;2.67;;;2.50;;
2728;SDS011;1372;47.956;7.830;2023-04-30T16:06:22;2.43;;;2.23;;
2728;SDS011;1372;47.956;7.830;2023-04-30T16:08:54;2.40;;;2.20;;
2728;SDS011;1372;47.956;7.830;2023-04-30T16:11:25;2.57;;;2.37;;